sensor_id;sensor_type;location;lat;lon;timestamp;temperature;humidity
8475;DHT22;4274;52.012;8.448;2022-12-16T00:01:37;-5.90;99.90
8475;DHT22;4274;52.012;8.448;2022-12-16T00:04:03;-5.70;99.90
8475;DHT22;4274;52.012;8.448;2022-12-16T00:06:31;-5.60;99.90
8475;DHT22;4274;52.012;8.448;2022-12-16T00:08:58;-5.70;99.90
8475;DHT22;4274;52.012;8.448;2022-12-16T00:11:23;-5.80;99.90
8475;DHT22;4274;52.012;8.448;2022-12-16T00:13:49;-5.80;99.90
8475;DHT22;4274;52.012;8.448;2022-12-16T00:16:16;-5.70;99.90
8475;DHT22;4274;52.012;8.448;2022-12-16T00:18:43;-5.70;99.90
8475;DHT22;4274;52.012;8.448;2022-12-16T00:21:09;-5.70;99.90
8475;DHT22;4274;52.012;8.448;2022-12-16T00:23:35;-5.70;99.90
8475;DHT22;4274;52.012;8.448;2022-12-16T00:26:03;-5.80;99.90
8475;DHT22;4274;52.012;8.448;2022-12-16T00:28:29;-5.80;99.90
8475;DHT22;4274;52.012;8.448;2022-12-16T00:30:55;-5.80;99.90
8475;DHT22;4274;52.012;8.448;2022-12-16T00:33:23;-5.90;99.90
8475;DHT22;4274;52.012;8.448;2022-12-16T00:35:49;-5.90;99.90
8475;DHT22;4274;52.012;8.448;2022-12-16T00:38:15;-5.90;99.90
8475;DHT22;4274;52.012;8.448;2022-12-16T00:40:40;-5.80;99.90
8475;DHT22;4274;52.012;8.448;2022-12-16T00:43:06;-5.70;99.90
8475;DHT22;4274;52.012;8.448;2022-12-16T00:45:32;-5.70;99.90
8475;DHT22;4274;52.012;8.448;2022-12-16T00:47:58;-5.70;99.90
8475;DHT22;4274;52.012;8.448;2022-12-16T00:50:24;-5.70;99.90
8475;DHT22;4274;52.012;8.448;2022-12-16T00:52:49;-5.70;99.90
8475;DHT22;4274;52.012;8.448;2022-12-16T00:55:16;-5.70;99.90
8475;DHT22;4274;52.012;8.448;2022-12-16T00:57:42;-5.60;99.90
8475;DHT22;4274;52.012;8.448;2022-12-16T01:00:09;-5.60;99.90
8475;DHT22;4274;52.012;8.448;2022-12-16T01:02:40;-5.60;99.90
8475;DHT22;4274;52.012;8.448;2022-12-16T01:05:07;-5.80;99.90
8475;DHT22;4274;52.012;8.448;2022-12-16T01:07:34;-5.80;99.90
8475;DHT22;4274;52.012;8.448;2022-12-16T01:09:59;-5.70;99.90
8475;DHT22;4274;52.012;8.448;2022-12-16T01:12:25;-5.70;99.90
8475;DHT22;4274;52.012;8.448;2022-12-16T01:14:51;-5.70;99.90
8475;DHT22;4274;52.012;8.448;2022-12-16T01:17:16;-5.70;99.90
8475;DHT22;4274;52.012;8.448;2022-12-16T01:19:42;-5.90;99.90
8475;DHT22;4274;52.012;8.448;2022-12-16T01:22:07;-5.90;99.90
8475;DHT22;4274;52.012;8.448;2022-12-16T01:24:33;-5.90;99.90
8475;DHT22;4274;52.012;8.448;2022-12-16T01:26:59;-5.80;99.90
8475;DHT22;4274;52.012;8.448;2022-12-16T01:29:25;-5.80;99.90
8475;DHT22;4274;52.012;8.448;2022-12-16T01:31:50;-5.70;99.90
8475;DHT22;4274;52.012;8.448;2022-12-16T01:34:16;-5.70;99.90
8475;DHT22;4274;52.012;8.448;2022-12-16T01:36:42;-5.60;99.90
8475;DHT22;4274;52.012;8.448;2022-12-16T01:39:10;-5.70;99.90
8475;DHT22;4274;52.012;8.448;2022-12-16T01:41:36;-5.80;99.90
8475;DHT22;4274;52.012;8.448;2022-12-16T01:44:14;-6.00;99.90
8475;DHT22;4274;52.012;8.448;2022-12-16T01:46:41;-6.10;99.90
8475;DHT22;4274;52.012;8.448;2022-12-16T01:49:29;-6.20;99.90
8475;DHT22;4274;52.012;8.448;2022-12-16T01:51:59;-6.30;99.90
8475;DHT22;4274;52.012;8.448;2022-12-16T01:54:39;-6.30;99.90
8475;DHT22;4274;52.012;8.448;2022-12-16T01:57:17;-6.30;99.90
8475;DHT22;4274;52.012;8.448;2022-12-16T01:59:45;-6.30;99.90
8475;DHT22;4274;52.012;8.448;2022-12-16T02:02:13;-6.40;99.90
8475;DHT22;4274;52.012;8.448;2022-12-16T02:04:39;-6.50;99.90
8475;DHT22;4274;52.012;8.448;2022-12-16T02:07:24;-6.50;99.90
8475;DHT22;4274;52.012;8.448;2022-12-16T02:09:51;-6.50;99.90
8475;DHT22;4274;52.012;8.448;2022-12-16T02:18:04;-6.40;99.90
8475;DHT22;4274;52.012;8.448;2022-12-16T02:34:35;-6.30;99.90
8475;DHT22;4274;52.012;8.448;2022-12-16T02:37:19;-6.40;99.90
8475;DHT22;4274;52.012;8.448;2022-12-16T02:40:03;-6.50;99.90
8475;DHT22;4274;52.012;8.448;2022-12-16T02:42:34;-6.50;99.90
8475;DHT22;4274;52.012;8.448;2022-12-16T02:45:20;-6.60;99.90
8475;DHT22;4274;52.012;8.448;2022-12-16T02:47:47;-6.70;99.90
8475;DHT22;4274;52.012;8.448;2022-12-16T02:50:24;-6.70;99.90
8475;DHT22;4274;52.012;8.448;2022-12-16T02:52:52;-6.80;99.90
8475;DHT22;4274;52.012;8.448;2022-12-16T02:55:19;-6.70;99.90
8475;DHT22;4274;52.012;8.448;2022-12-16T03:01:39;-6.70;99.90
8475;DHT22;4274;52.012;8.448;2022-12-16T03:06:32;-6.70;99.90
8475;DHT22;4274;52.012;8.448;2022-12-16T03:09:02;-6.60;99.90
8475;DHT22;4274;52.012;8.448;2022-12-16T03:13:59;-6.50;99.90
8475;DHT22;4274;52.012;8.448;2022-12-16T03:16:29;-6.60;99.90
8475;DHT22;4274;52.012;8.448;2022-12-16T03:19:00;-6.60;99.90
8475;DHT22;4274;52.012;8.448;2022-12-16T03:21:31;-6.70;99.90
8475;DHT22;4274;52.012;8.448;2022-12-16T03:24:00;-6.70;99.90
8475;DHT22;4274;52.012;8.448;2022-12-16T03:29:21;-6.70;99.90
8475;DHT22;4274;52.012;8.448;2022-12-16T03:31:54;-6.70;99.90
8475;DHT22;4274;52.012;8.448;2022-12-16T03:37:00;-6.80;99.90
8475;DHT22;4274;52.012;8.448;2022-12-16T03:39:26;-6.80;99.90
8475;DHT22;4274;52.012;8.448;2022-12-16T03:41:53;-6.80;99.90
8475;DHT22;4274;52.012;8.448;2022-12-16T03:44:23;-6.80;99.90
8475;DHT22;4274;52.012;8.448;2022-12-16T03:46:50;-6.70;99.90
8475;DHT22;4274;52.012;8.448;2022-12-16T03:49:16;-6.80;99.90
8475;DHT22;4274;52.012;8.448;2022-12-16T03:51:41;-6.90;99.90
8475;DHT22;4274;52.012;8.448;2022-12-16T03:54:07;-6.90;99.90
8475;DHT22;4274;52.012;8.448;2022-12-16T03:56:32;-7.00;99.90
8475;DHT22;4274;52.012;8.448;2022-12-16T03:58:58;-7.00;99.90
8475;DHT22;4274;52.012;8.448;2022-12-16T04:01:24;-6.90;99.90
8475;DHT22;4274;52.012;8.448;2022-12-16T04:03:50;-7.00;99.90
8475;DHT22;4274;52.012;8.448;2022-12-16T04:06:16;-6.90;99.90
8475;DHT22;4274;52.012;8.448;2022-12-16T04:08:44;-6.80;99.90
8475;DHT22;4274;52.012;8.448;2022-12-16T04:11:11;-6.70;99.90
8475;DHT22;4274;52.012;8.448;2022-12-16T04:13:56;-6.60;99.90
8475;DHT22;4274;52.012;8.448;2022-12-16T04:16:41;-6.50;99.90
8475;DHT22;4274;52.012;8.448;2022-12-16T04:19:29;-6.50;99.90
8475;DHT22;4274;52.012;8.448;2022-12-16T04:22:18;-6.60;99.90
8475;DHT22;4274;52.012;8.448;2022-12-16T04:25:20;-6.70;99.90
8475;DHT22;4274;52.012;8.448;2022-12-16T04:27:46;-6.80;99.90
8475;DHT22;4274;52.012;8.448;2022-12-16T04:30:16;-7.00;99.90
8475;DHT22;4274;52.012;8.448;2022-12-16T04:32:52;-7.00;99.90
8475;DHT22;4274;52.012;8.448;2022-12-16T04:35:47;-7.10;99.90
8475;DHT22;4274;52.012;8.448;2022-12-16T04:38:32;-7.10;99.90
8475;DHT22;4274;52.012;8.448;2022-12-16T04:41:17;-7.10;99.90
8475;DHT22;4274;52.012;8.448;2022-12-16T04:44:01;-7.10;99.90
8475;DHT22;4274;52.012;8.448;2022-12-16T04:46:46;-7.10;99.90
8475;DHT22;4274;52.012;8.448;2022-12-16T04:49:30;-7.00;99.90
8475;DHT22;4274;52.012;8.448;2022-12-16T04:52:14;-7.10;99.90
8475;DHT22;4274;52.012;8.448;2022-12-16T04:54:58;-7.00;99.90
8475;DHT22;4274;52.012;8.448;2022-12-16T04:57:47;-6.90;99.90
8475;DHT22;4274;52.012;8.448;2022-12-16T05:00:31;-6.80;99.90
8475;DHT22;4274;52.012;8.448;2022-12-16T05:03:15;-6.90;99.90
8475;DHT22;4274;52.012;8.448;2022-12-16T05:05:59;-7.00;99.90
8475;DHT22;4274;52.012;8.448;2022-12-16T05:08:43;-7.10;99.90
8475;DHT22;4274;52.012;8.448;2022-12-16T05:11:27;-7.20;99.90
8475;DHT22;4274;52.012;8.448;2022-12-16T05:14:11;-7.30;99.90
8475;DHT22;4274;52.012;8.448;2022-12-16T05:16:55;-7.30;99.90
8475;DHT22;4274;52.012;8.448;2022-12-16T05:19:39;-7.30;99.90
8475;DHT22;4274;52.012;8.448;2022-12-16T05:22:23;-7.40;99.90
8475;DHT22;4274;52.012;8.448;2022-12-16T05:25:08;-7.40;99.90
8475;DHT22;4274;52.012;8.448;2022-12-16T05:27:52;-7.20;99.90
8475;DHT22;4274;52.012;8.448;2022-12-16T05:30:37;-7.10;99.90
8475;DHT22;4274;52.012;8.448;2022-12-16T05:33:22;-7.10;99.90
8475;DHT22;4274;52.012;8.448;2022-12-16T05:36:06;-7.20;99.90
8475;DHT22;4274;52.012;8.448;2022-12-16T05:38:51;-7.30;99.90
8475;DHT22;4274;52.012;8.448;2022-12-16T05:41:35;-7.30;99.90
8475;DHT22;4274;52.012;8.448;2022-12-16T05:44:20;-7.20;99.90
8475;DHT22;4274;52.012;8.448;2022-12-16T05:47:04;-7.20;99.90
8475;DHT22;4274;52.012;8.448;2022-12-16T05:49:48;-7.10;99.90
8475;DHT22;4274;52.012;8.448;2022-12-16T05:52:33;-7.00;99.90
8475;DHT22;4274;52.012;8.448;2022-12-16T05:55:18;-7.00;99.90
8475;DHT22;4274;52.012;8.448;2022-12-16T05:58:02;-7.10;99.90
8475;DHT22;4274;52.012;8.448;2022-12-16T06:00:46;-7.20;99.90
8475;DHT22;4274;52.012;8.448;2022-12-16T06:03:30;-7.20;99.90
8475;DHT22;4274;52.012;8.448;2022-12-16T06:06:14;-7.30;99.90
8475;DHT22;4274;52.012;8.448;2022-12-16T06:08:58;-7.30;99.90
8475;DHT22;4274;52.012;8.448;2022-12-16T06:11:42;-7.30;99.90
8475;DHT22;4274;52.012;8.448;2022-12-16T06:14:26;-7.40;99.90
8475;DHT22;4274;52.012;8.448;2022-12-16T06:17:10;-7.50;99.90
8475;DHT22;4274;52.012;8.448;2022-12-16T06:19:54;-7.40;99.90
8475;DHT22;4274;52.012;8.448;2022-12-16T06:22:38;-7.50;99.90
8475;DHT22;4274;52.012;8.448;2022-12-16T06:25:22;-7.50;99.90
8475;DHT22;4274;52.012;8.448;2022-12-16T06:28:06;-7.60;99.90
8475;DHT22;4274;52.012;8.448;2022-12-16T06:30:50;-7.40;99.90
8475;DHT22;4274;52.012;8.448;2022-12-16T06:33:34;-7.30;99.90
8475;DHT22;4274;52.012;8.448;2022-12-16T06:36:18;-7.20;99.90
8475;DHT22;4274;52.012;8.448;2022-12-16T06:39:02;-7.30;99.90
8475;DHT22;4274;52.012;8.448;2022-12-16T06:41:46;-7.30;99.90
8475;DHT22;4274;52.012;8.448;2022-12-16T06:44:30;-7.40;99.90
8475;DHT22;4274;52.012;8.448;2022-12-16T06:47:14;-7.50;99.90
8475;DHT22;4274;52.012;8.448;2022-12-16T06:49:58;-7.60;99.90
8475;DHT22;4274;52.012;8.448;2022-12-16T06:52:42;-7.60;99.90
8475;DHT22;4274;52.012;8.448;2022-12-16T06:55:27;-7.70;99.90
8475;DHT22;4274;52.012;8.448;2022-12-16T06:58:11;-7.70;99.90
8475;DHT22;4274;52.012;8.448;2022-12-16T07:00:55;-7.70;99.90
8475;DHT22;4274;52.012;8.448;2022-12-16T07:03:39;-7.70;99.90
8475;DHT22;4274;52.012;8.448;2022-12-16T07:06:23;-7.80;99.90
8475;DHT22;4274;52.012;8.448;2022-12-16T07:09:07;-7.80;99.90
8475;DHT22;4274;52.012;8.448;2022-12-16T07:11:51;-7.70;99.90
8475;DHT22;4274;52.012;8.448;2022-12-16T07:14:35;-7.60;99.90
8475;DHT22;4274;52.012;8.448;2022-12-16T07:17:20;-7.50;99.90
8475;DHT22;4274;52.012;8.448;2022-12-16T07:20:04;-7.40;99.90
8475;DHT22;4274;52.012;8.448;2022-12-16T07:22:49;-7.30;99.90
8475;DHT22;4274;52.012;8.448;2022-12-16T07:25:37;-7.20;99.90
8475;DHT22;4274;52.012;8.448;2022-12-16T07:28:21;-7.10;99.90
8475;DHT22;4274;52.012;8.448;2022-12-16T07:31:06;-7.00;99.90
8475;DHT22;4274;52.012;8.448;2022-12-16T07:33:50;-6.90;99.90
8475;DHT22;4274;52.012;8.448;2022-12-16T07:36:34;-7.00;99.90
8475;DHT22;4274;52.012;8.448;2022-12-16T07:39:18;-7.10;99.90
8475;DHT22;4274;52.012;8.448;2022-12-16T07:42:02;-7.30;99.90
8475;DHT22;4274;52.012;8.448;2022-12-16T07:44:46;-7.30;99.90
8475;DHT22;4274;52.012;8.448;2022-12-16T07:47:30;-7.20;99.90
8475;DHT22;4274;52.012;8.448;2022-12-16T07:50:31;-7.20;99.90
8475;DHT22;4274;52.012;8.448;2022-12-16T07:53:15;-7.20;99.90
8475;DHT22;4274;52.012;8.448;2022-12-16T07:55:59;-7.20;99.90
8475;DHT22;4274;52.012;8.448;2022-12-16T07:58:43;-7.20;99.90
8475;DHT22;4274;52.012;8.448;2022-12-16T08:01:27;-7.10;99.90
8475;DHT22;4274;52.012;8.448;2022-12-16T08:04:11;-7.10;99.90
8475;DHT22;4274;52.012;8.448;2022-12-16T08:06:55;-7.00;99.90
8475;DHT22;4274;52.012;8.448;2022-12-16T08:09:39;-6.90;99.90
8475;DHT22;4274;52.012;8.448;2022-12-16T08:12:23;-6.80;99.90
8475;DHT22;4274;52.012;8.448;2022-12-16T08:15:08;-6.70;99.90
8475;DHT22;4274;52.012;8.448;2022-12-16T08:17:52;-6.60;99.90
8475;DHT22;4274;52.012;8.448;2022-12-16T08:20:37;-6.50;99.90
8475;DHT22;4274;52.012;8.448;2022-12-16T08:23:38;-6.40;99.90
8475;DHT22;4274;52.012;8.448;2022-12-16T08:26:22;-6.20;99.90
8475;DHT22;4274;52.012;8.448;2022-12-16T08:29:07;-6.00;99.90
8475;DHT22;4274;52.012;8.448;2022-12-16T08:31:51;-5.60;99.90
8475;DHT22;4274;52.012;8.448;2022-12-16T08:34:35;-5.30;99.90
8475;DHT22;4274;52.012;8.448;2022-12-16T08:37:19;-4.60;99.90
8475;DHT22;4274;52.012;8.448;2022-12-16T08:40:03;-3.80;99.90
8475;DHT22;4274;52.012;8.448;2022-12-16T08:42:48;-2.90;99.90
8475;DHT22;4274;52.012;8.448;2022-12-16T08:45:32;-2.30;99.90
8475;DHT22;4274;52.012;8.448;2022-12-16T08:48:17;-2.00;99.90
8475;DHT22;4274;52.012;8.448;2022-12-16T08:51:02;-1.40;99.90
8475;DHT22;4274;52.012;8.448;2022-12-16T08:53:47;-0.60;99.90
8475;DHT22;4274;52.012;8.448;2022-12-16T08:56:31;0.30;99.90
8475;DHT22;4274;52.012;8.448;2022-12-16T08:59:16;1.10;99.90
8475;DHT22;4274;52.012;8.448;2022-12-16T09:02:00;1.60;99.90
8475;DHT22;4274;52.012;8.448;2022-12-16T09:04:44;1.80;99.90
8475;DHT22;4274;52.012;8.448;2022-12-16T09:07:28;1.80;99.90
8475;DHT22;4274;52.012;8.448;2022-12-16T09:10:12;1.70;99.90
8475;DHT22;4274;52.012;8.448;2022-12-16T09:13:13;2.10;99.90
8475;DHT22;4274;52.012;8.448;2022-12-16T09:15:58;2.50;99.90
8475;DHT22;4274;52.012;8.448;2022-12-16T09:18:42;2.40;99.90
8475;DHT22;4274;52.012;8.448;2022-12-16T09:21:26;2.40;99.90
8475;DHT22;4274;52.012;8.448;2022-12-16T09:24:10;2.50;99.90
8475;DHT22;4274;52.012;8.448;2022-12-16T09:26:54;2.50;99.90
8475;DHT22;4274;52.012;8.448;2022-12-16T09:29:38;2.50;99.90
8475;DHT22;4274;52.012;8.448;2022-12-16T09:32:22;2.70;99.90
8475;DHT22;4274;52.012;8.448;2022-12-16T09:35:06;2.70;99.90
8475;DHT22;4274;52.012;8.448;2022-12-16T09:37:51;2.50;99.90
8475;DHT22;4274;52.012;8.448;2022-12-16T09:40:38;2.10;99.90
8475;DHT22;4274;52.012;8.448;2022-12-16T09:46:58;1.30;99.90
8475;DHT22;4274;52.012;8.448;2022-12-16T09:49:51;1.00;99.90
8475;DHT22;4274;52.012;8.448;2022-12-16T09:52:43;0.80;99.90
8475;DHT22;4274;52.012;8.448;2022-12-16T09:55:47;0.70;99.90
8475;DHT22;4274;52.012;8.448;2022-12-16T09:58:37;0.80;99.90
8475;DHT22;4274;52.012;8.448;2022-12-16T10:01:23;1.10;99.90
8475;DHT22;4274;52.012;8.448;2022-12-16T10:04:08;1.30;99.90
8475;DHT22;4274;52.012;8.448;2022-12-16T10:06:57;1.50;99.90
8475;DHT22;4274;52.012;8.448;2022-12-16T10:16:16;2.00;99.90
8475;DHT22;4274;52.012;8.448;2022-12-16T10:22:34;1.90;99.90
8475;DHT22;4274;52.012;8.448;2022-12-16T10:25:43;1.90;99.90
8475;DHT22;4274;52.012;8.448;2022-12-16T10:31:25;2.00;99.90
8475;DHT22;4274;52.012;8.448;2022-12-16T10:34:13;2.10;99.90
8475;DHT22;4274;52.012;8.448;2022-12-16T10:36:59;2.20;99.90
8475;DHT22;4274;52.012;8.448;2022-12-16T10:39:49;2.40;99.90
8475;DHT22;4274;52.012;8.448;2022-12-16T10:43:01;2.90;99.90
8475;DHT22;4274;52.012;8.448;2022-12-16T10:45:50;4.10;99.90
8475;DHT22;4274;52.012;8.448;2022-12-16T10:48:35;5.60;99.90
8475;DHT22;4274;52.012;8.448;2022-12-16T10:51:22;6.80;99.90
8475;DHT22;4274;52.012;8.448;2022-12-16T11:00:19;10.40;99.90
8475;DHT22;4274;52.012;8.448;2022-12-16T11:03:25;11.10;99.90
8475;DHT22;4274;52.012;8.448;2022-12-16T11:06:13;11.80;99.90
8475;DHT22;4274;52.012;8.448;2022-12-16T11:12:25;12.50;99.90
8475;DHT22;4274;52.012;8.448;2022-12-16T11:15:30;13.10;99.90
8475;DHT22;4274;52.012;8.448;2022-12-16T11:18:17;13.40;98.70
8475;DHT22;4274;52.012;8.448;2022-12-16T11:26:59;14.40;97.50
8475;DHT22;4274;52.012;8.448;2022-12-16T11:30:04;14.40;95.60
8475;DHT22;4274;52.012;8.448;2022-12-16T11:32:59;14.30;93.90
8475;DHT22;4274;52.012;8.448;2022-12-16T11:35:52;14.00;94.20
8475;DHT22;4274;52.012;8.448;2022-12-16T11:38:43;13.80;95.00
8475;DHT22;4274;52.012;8.448;2022-12-16T11:41:34;13.90;94.40
8475;DHT22;4274;52.012;8.448;2022-12-16T11:47:44;13.70;95.10
8475;DHT22;4274;52.012;8.448;2022-12-16T11:50:32;13.80;95.10
8475;DHT22;4274;52.012;8.448;2022-12-16T11:56:26;13.60;94.30
8475;DHT22;4274;52.012;8.448;2022-12-16T11:59:38;13.10;94.60
8475;DHT22;4274;52.012;8.448;2022-12-16T12:02:40;11.90;94.50
8475;DHT22;4274;52.012;8.448;2022-12-16T12:05:32;10.20;94.20
8475;DHT22;4274;52.012;8.448;2022-12-16T12:11:52;7.20;97.10
8475;DHT22;4274;52.012;8.448;2022-12-16T12:14:47;6.20;98.60
8475;DHT22;4274;52.012;8.448;2022-12-16T12:18:07;5.30;99.90
8475;DHT22;4274;52.012;8.448;2022-12-16T12:27:17;3.60;99.90
8475;DHT22;4274;52.012;8.448;2022-12-16T12:32:56;3.00;99.90
8475;DHT22;4274;52.012;8.448;2022-12-16T12:48:18;1.90;99.90
8475;DHT22;4274;52.012;8.448;2022-12-16T12:51:36;1.80;99.90
8475;DHT22;4274;52.012;8.448;2022-12-16T12:57:42;1.50;99.90
8475;DHT22;4274;52.012;8.448;2022-12-16T13:00:30;1.40;99.90
8475;DHT22;4274;52.012;8.448;2022-12-16T13:03:27;1.30;99.90
8475;DHT22;4274;52.012;8.448;2022-12-16T13:06:15;1.10;99.90
8475;DHT22;4274;52.012;8.448;2022-12-16T13:09:00;1.00;99.90
8475;DHT22;4274;52.012;8.448;2022-12-16T13:15:18;0.90;99.90
8475;DHT22;4274;52.012;8.448;2022-12-16T13:20:51;0.80;99.90
8475;DHT22;4274;52.012;8.448;2022-12-16T13:23:38;0.80;99.90
8475;DHT22;4274;52.012;8.448;2022-12-16T13:26:24;0.70;99.90
8475;DHT22;4274;52.012;8.448;2022-12-16T13:29:28;0.70;99.90
8475;DHT22;4274;52.012;8.448;2022-12-16T13:32:26;0.60;99.90
8475;DHT22;4274;52.012;8.448;2022-12-16T13:38:15;0.40;99.90
8475;DHT22;4274;52.012;8.448;2022-12-16T13:41:04;0.40;99.90
8475;DHT22;4274;52.012;8.448;2022-12-16T13:43:57;0.30;99.90
8475;DHT22;4274;52.012;8.448;2022-12-16T13:46:52;0.20;99.90
8475;DHT22;4274;52.012;8.448;2022-12-16T14:01:57;0.20;99.90
8475;DHT22;4274;52.012;8.448;2022-12-16T14:04:52;0.20;99.90
8475;DHT22;4274;52.012;8.448;2022-12-16T14:07:38;0.20;99.90
8475;DHT22;4274;52.012;8.448;2022-12-16T14:13:42;0.10;99.90
8475;DHT22;4274;52.012;8.448;2022-12-16T14:25:26;-0.10;99.90
8475;DHT22;4274;52.012;8.448;2022-12-16T14:28:34;-0.10;99.90
8475;DHT22;4274;52.012;8.448;2022-12-16T14:34:23;-0.20;99.90
8475;DHT22;4274;52.012;8.448;2022-12-16T14:37:18;-0.30;99.90
8475;DHT22;4274;52.012;8.448;2022-12-16T14:40:05;-0.30;99.90
8475;DHT22;4274;52.012;8.448;2022-12-16T14:42:51;-0.40;99.90
8475;DHT22;4274;52.012;8.448;2022-12-16T14:45:37;-0.50;99.90
8475;DHT22;4274;52.012;8.448;2022-12-16T14:48:33;-0.70;99.90
8475;DHT22;4274;52.012;8.448;2022-12-16T14:51:27;-0.80;99.90
8475;DHT22;4274;52.012;8.448;2022-12-16T14:54:30;-0.90;99.90
8475;DHT22;4274;52.012;8.448;2022-12-16T14:57:29;-1.00;99.90
8475;DHT22;4274;52.012;8.448;2022-12-16T15:03:33;-1.30;99.90
8475;DHT22;4274;52.012;8.448;2022-12-16T15:09:43;-1.70;99.90
8475;DHT22;4274;52.012;8.448;2022-12-16T15:12:33;-1.80;99.90
8475;DHT22;4274;52.012;8.448;2022-12-16T15:18:31;-1.90;99.90
8475;DHT22;4274;52.012;8.448;2022-12-16T15:21:16;-2.00;99.90
8475;DHT22;4274;52.012;8.448;2022-12-16T15:24:00;-2.10;99.90
8475;DHT22;4274;52.012;8.448;2022-12-16T15:26:44;-2.20;99.90
8475;DHT22;4274;52.012;8.448;2022-12-16T15:35:32;-2.40;99.90
8475;DHT22;4274;52.012;8.448;2022-12-16T15:38:27;-2.40;99.90
8475;DHT22;4274;52.012;8.448;2022-12-16T15:41:30;-2.30;99.90
8475;DHT22;4274;52.012;8.448;2022-12-16T15:44:24;-2.30;99.90
8475;DHT22;4274;52.012;8.448;2022-12-16T15:50:14;-2.30;99.90
8475;DHT22;4274;52.012;8.448;2022-12-16T15:53:36;-2.40;99.90
8475;DHT22;4274;52.012;8.448;2022-12-16T15:56:26;-2.50;99.90
8475;DHT22;4274;52.012;8.448;2022-12-16T16:01:57;-2.80;99.90
8475;DHT22;4274;52.012;8.448;2022-12-16T16:04:42;-2.90;99.90
8475;DHT22;4274;52.012;8.448;2022-12-16T16:07:26;-3.10;99.90
8475;DHT22;4274;52.012;8.448;2022-12-16T16:10:23;-3.10;99.90
8475;DHT22;4274;52.012;8.448;2022-12-16T16:13:08;-3.20;99.90
8475;DHT22;4274;52.012;8.448;2022-12-16T16:15:53;-3.30;99.90
8475;DHT22;4274;52.012;8.448;2022-12-16T16:18:37;-3.20;99.90
8475;DHT22;4274;52.012;8.448;2022-12-16T16:21:22;-3.20;99.90
8475;DHT22;4274;52.012;8.448;2022-12-16T16:24:07;-3.20;99.90
8475;DHT22;4274;52.012;8.448;2022-12-16T16:26:52;-3.20;99.90
8475;DHT22;4274;52.012;8.448;2022-12-16T16:29:37;-3.30;99.90
8475;DHT22;4274;52.012;8.448;2022-12-16T16:32:21;-3.40;99.90
8475;DHT22;4274;52.012;8.448;2022-12-16T16:35:05;-3.50;99.90
8475;DHT22;4274;52.012;8.448;2022-12-16T16:37:49;-3.60;99.90
8475;DHT22;4274;52.012;8.448;2022-12-16T16:40:38;-3.70;99.90
8475;DHT22;4274;52.012;8.448;2022-12-16T16:43:23;-3.80;99.90
8475;DHT22;4274;52.012;8.448;2022-12-16T16:46:43;-3.80;99.90
8475;DHT22;4274;52.012;8.448;2022-12-16T16:49:30;-3.90;99.90
8475;DHT22;4274;52.012;8.448;2022-12-16T16:52:17;-4.00;99.90
8475;DHT22;4274;52.012;8.448;2022-12-16T16:55:03;-4.00;99.90
8475;DHT22;4274;52.012;8.448;2022-12-16T16:57:47;-4.00;99.90
8475;DHT22;4274;52.012;8.448;2022-12-16T17:00:32;-4.10;99.90
8475;DHT22;4274;52.012;8.448;2022-12-16T17:03:26;-4.00;99.90
8475;DHT22;4274;52.012;8.448;2022-12-16T17:06:10;-4.00;99.90
8475;DHT22;4274;52.012;8.448;2022-12-16T17:08:54;-3.90;99.90
8475;DHT22;4274;52.012;8.448;2022-12-16T17:11:39;-3.90;99.90
8475;DHT22;4274;52.012;8.448;2022-12-16T17:14:23;-3.90;99.90
8475;DHT22;4274;52.012;8.448;2022-12-16T17:17:08;-3.90;99.90
8475;DHT22;4274;52.012;8.448;2022-12-16T17:19:52;-4.00;99.90
8475;DHT22;4274;52.012;8.448;2022-12-16T17:22:36;-4.00;99.90
8475;DHT22;4274;52.012;8.448;2022-12-16T17:25:20;-4.10;99.90
8475;DHT22;4274;52.012;8.448;2022-12-16T17:28:05;-4.10;99.90
8475;DHT22;4274;52.012;8.448;2022-12-16T17:30:49;-4.10;99.90
8475;DHT22;4274;52.012;8.448;2022-12-16T17:33:33;-4.10;99.90
8475;DHT22;4274;52.012;8.448;2022-12-16T17:36:18;-4.20;99.90
8475;DHT22;4274;52.012;8.448;2022-12-16T17:39:04;-4.30;99.90
8475;DHT22;4274;52.012;8.448;2022-12-16T17:41:49;-4.40;99.90
8475;DHT22;4274;52.012;8.448;2022-12-16T17:44:33;-4.50;99.90
8475;DHT22;4274;52.012;8.448;2022-12-16T17:47:17;-4.50;99.90
8475;DHT22;4274;52.012;8.448;2022-12-16T17:50:01;-4.60;99.90
8475;DHT22;4274;52.012;8.448;2022-12-16T17:52:46;-4.70;99.90
8475;DHT22;4274;52.012;8.448;2022-12-16T17:55:30;-4.80;99.90
8475;DHT22;4274;52.012;8.448;2022-12-16T17:58:14;-4.70;99.90
8475;DHT22;4274;52.012;8.448;2022-12-16T18:01:03;-4.70;99.90
8475;DHT22;4274;52.012;8.448;2022-12-16T18:03:48;-4.80;99.90
8475;DHT22;4274;52.012;8.448;2022-12-16T18:06:32;-4.90;99.90
8475;DHT22;4274;52.012;8.448;2022-12-16T18:09:16;-4.90;99.90
8475;DHT22;4274;52.012;8.448;2022-12-16T18:12:01;-5.00;99.90
8475;DHT22;4274;52.012;8.448;2022-12-16T18:14:45;-5.00;99.90
8475;DHT22;4274;52.012;8.448;2022-12-16T18:17:29;-5.00;99.90
8475;DHT22;4274;52.012;8.448;2022-12-16T18:20:13;-5.10;99.90
8475;DHT22;4274;52.012;8.448;2022-12-16T18:22:57;-5.00;99.90
8475;DHT22;4274;52.012;8.448;2022-12-16T18:25:40;-5.10;99.90
8475;DHT22;4274;52.012;8.448;2022-12-16T18:28:25;-5.10;99.90
8475;DHT22;4274;52.012;8.448;2022-12-16T18:31:19;-5.20;99.90
8475;DHT22;4274;52.012;8.448;2022-12-16T18:34:04;-5.20;99.90
8475;DHT22;4274;52.012;8.448;2022-12-16T18:36:48;-5.20;99.90
8475;DHT22;4274;52.012;8.448;2022-12-16T18:39:32;-5.30;99.90
8475;DHT22;4274;52.012;8.448;2022-12-16T18:42:16;-5.30;99.90
8475;DHT22;4274;52.012;8.448;2022-12-16T18:45:00;-5.30;99.90
8475;DHT22;4274;52.012;8.448;2022-12-16T18:47:44;-5.30;99.90
8475;DHT22;4274;52.012;8.448;2022-12-16T18:50:28;-5.30;99.90
8475;DHT22;4274;52.012;8.448;2022-12-16T18:53:12;-5.40;99.90
8475;DHT22;4274;52.012;8.448;2022-12-16T18:56:05;-5.40;99.90
8475;DHT22;4274;52.012;8.448;2022-12-16T18:58:49;-5.40;99.90
8475;DHT22;4274;52.012;8.448;2022-12-16T19:01:33;-5.40;99.90
8475;DHT22;4274;52.012;8.448;2022-12-16T19:04:17;-5.40;99.90
8475;DHT22;4274;52.012;8.448;2022-12-16T19:07:01;-5.30;99.90
8475;DHT22;4274;52.012;8.448;2022-12-16T19:09:45;-5.30;99.90
8475;DHT22;4274;52.012;8.448;2022-12-16T19:12:29;-5.20;99.90
8475;DHT22;4274;52.012;8.448;2022-12-16T19:15:14;-5.10;99.90
8475;DHT22;4274;52.012;8.448;2022-12-16T19:17:57;-5.10;99.90
8475;DHT22;4274;52.012;8.448;2022-12-16T19:20:41;-5.10;99.90
8475;DHT22;4274;52.012;8.448;2022-12-16T19:23:25;-5.10;99.90
8475;DHT22;4274;52.012;8.448;2022-12-16T19:26:09;-5.00;99.90
8475;DHT22;4274;52.012;8.448;2022-12-16T19:28:53;-5.10;99.90
8475;DHT22;4274;52.012;8.448;2022-12-16T19:31:38;-5.10;99.90
8475;DHT22;4274;52.012;8.448;2022-12-16T19:34:22;-5.20;99.90
8475;DHT22;4274;52.012;8.448;2022-12-16T19:37:06;-5.30;99.90
8475;DHT22;4274;52.012;8.448;2022-12-16T19:39:50;-5.40;99.90
8475;DHT22;4274;52.012;8.448;2022-12-16T19:42:34;-5.50;99.90
8475;DHT22;4274;52.012;8.448;2022-12-16T19:45:18;-5.60;99.90
8475;DHT22;4274;52.012;8.448;2022-12-16T19:48:05;-5.60;99.90
8475;DHT22;4274;52.012;8.448;2022-12-16T19:51:00;-5.50;99.90
8475;DHT22;4274;52.012;8.448;2022-12-16T19:53:44;-5.50;99.90
8475;DHT22;4274;52.012;8.448;2022-12-16T19:56:28;-5.50;99.90
8475;DHT22;4274;52.012;8.448;2022-12-16T19:59:12;-5.50;99.90
8475;DHT22;4274;52.012;8.448;2022-12-16T20:01:56;-5.40;99.90
8475;DHT22;4274;52.012;8.448;2022-12-16T20:04:40;-5.30;99.90
8475;DHT22;4274;52.012;8.448;2022-12-16T20:07:24;-5.30;99.90
8475;DHT22;4274;52.012;8.448;2022-12-16T20:10:09;-5.40;99.90
8475;DHT22;4274;52.012;8.448;2022-12-16T20:12:53;-5.40;99.90
8475;DHT22;4274;52.012;8.448;2022-12-16T20:15:37;-5.40;99.90
8475;DHT22;4274;52.012;8.448;2022-12-16T20:18:21;-5.40;99.90
8475;DHT22;4274;52.012;8.448;2022-12-16T20:21:05;-5.30;99.90
8475;DHT22;4274;52.012;8.448;2022-12-16T20:23:49;-5.20;99.90
8475;DHT22;4274;52.012;8.448;2022-12-16T20:26:33;-5.10;99.90